Terminal Aerodrome Forecast
Issued by NWS

Home | Current Version | Previous Version | Text Only | Print | Product List | Glossary On
Versions: 1 2 3 4 5 6 7 8 9 10 11 12 13 14 15 16 17 18
000
FTUS45 KFGZ 241734
TAFSEZ
TAF
KSEZ 241734Z 2418/2518 21009KT P6SM SKC
     FM241930 22016G26KT P6SM FEW130
     FM250400 VRB06KT P6SM FEW130=

USA.gov is the U.S. government's official web portal to all federal, state and local government web resources and services.